Time;durP1;ratioP1;P1;durP2;ratioP2;P2;SDS_P1;SDS_P2;PMS_P1;PMS_P2;Temp;Humidity;BMP_temperature;BMP_pressure;BME280_temperature;BME280_humidity;BME280_pressure;Samples;Min_cycle;Max_cycle;Signal;HPM_P1;HPM_P2
2020/12/08 05:03:10;;;;;;;16.73;7.37;;;;;;;-8.49;79.90;102463.60;1721892;82;21235;-92
2020/12/08 05:05:43;;;;;;;15.18;7.78;;;;;;;-8.48;79.74;102466.59;1745128;80;21122;-92
2020/12/08 05:12:04;;;;;;;18.00;8.00;;;;;;;-8.48;79.70;102471.64;1762152;81;21091;-93
2020/12/08 05:14:42;;;;;;;13.85;7.10;;;;;;;-8.49;79.71;102463.60;1730117;82;21134;-93
2020/12/08 05:17:43;;;;;;;17.60;7.55;;;;;;;-8.50;79.89;102460.61;1762372;80;21212;-92
2020/12/08 05:20:29;;;;;;;20.35;7.78;;;;;;;-8.48;80.02;102461.11;1761520;80;21135;-93
2020/12/08 05:22:59;;;;;;;19.57;8.45;;;;;;;-8.45;79.99;102454.88;1760204;81;21127;-94
2020/12/08 05:25:30;;;;;;;18.65;8.88;;;;;;;-8.44;79.95;102457.86;1754387;81;28290;-92
2020/12/08 05:28:26;;;;;;;18.48;8.15;;;;;;;-8.42;79.98;102466.75;1744479;81;21158;-92
2020/12/08 05:30:54;;;;;;;19.27;8.33;;;;;;;-8.38;80.20;102462.66;1741112;82;21270;-93
2020/12/08 05:33:29;;;;;;;18.73;7.80;;;;;;;-8.34;80.45;102459.02;1739810;82;21103;-93
2020/12/08 05:36:29;;;;;;;17.77;7.42;;;;;;;-8.29;80.82;102463.80;1738858;82;21119;-93
2020/12/08 05:42:32;;;;;;;22.20;8.28;;;;;;;-8.20;80.94;102468.70;1710152;83;21071;-93
2020/12/08 05:48:53;;;;;;;19.77;7.92;;;;;;;-8.18;81.26;102470.89;1710164;82;21982;-93
2020/12/08 05:55:45;;;;;;;19.27;8.60;;;;;;;-8.16;81.71;102467.59;1709432;83;21192;-90
2020/12/08 05:58:20;;;;;;;22.60;7.87;;;;;;;-8.09;81.93;102468.24;1683821;84;21624;-91
2020/12/08 06:05:24;;;;;;;18.40;8.73;;;;;;;-8.03;82.11;102479.38;1687585;84;21616;-92
2020/12/08 06:08:22;;;;;;;21.62;7.58;;;;;;;-7.99;82.13;102479.92;1708581;83;21128;-91
2020/12/08 06:10:55;;;;;;;16.27;7.80;;;;;;;-7.98;82.08;102483.78;1683272;84;21179;-91
2020/12/08 06:17:47;;;;;;;19.10;8.73;;;;;;;-7.93;82.29;102495.31;1709336;83;21393;-91
2020/12/08 06:20:50;;;;;;;20.77;9.10;;;;;;;-7.90;82.45;102496.66;1711395;83;21106;-92
2020/12/08 06:27:42;;;;;;;14.95;7.40;;;;;;;-7.87;83.01;102492.97;1734995;82;21555;-94
2020/12/08 06:34:34;;;;;;;18.48;8.45;;;;;;;-7.87;82.99;102495.89;1729717;82;21084;-93
2020/12/08 06:37:10;;;;;;;23.02;9.43;;;;;;;-7.90;83.30;102492.02;1741177;82;21788;-94
2020/12/08 06:43:53;;;;;;;19.30;8.83;;;;;;;-7.82;84.61;102496.48;1739087;82;21132;-95
2020/12/08 06:50:46;;;;;;;25.25;10.08;;;;;;;-7.40;86.37;102488.88;1737146;81;21206;-94
2020/12/08 06:57:38;;;;;;;24.18;10.72;;;;;;;-7.25;85.09;102476.23;1728642;82;21073;-94
2020/12/08 07:04:30;;;;;;;24.60;10.50;;;;;;;-7.26;84.70;102460.59;1723055;81;21188;-94
2020/12/08 07:11:03;;;;;;;18.55;9.25;;;;;;;-7.15;84.97;102449.08;1679523;85;21636;-95
2020/12/08 07:18:01;;;;;;;46.63;15.10;;;;;;;-6.92;85.77;102450.11;1721383;82;21057;-95
2020/12/08 07:28:09;;;;;;;112.08;29.90;;;;;;;-6.64;84.46;102441.98;1679440;85;21166;-96
2020/12/08 07:35:01;;;;;;;63.40;22.27;;;;;;;-6.50;84.24;102446.59;1693421;84;21219;-96
2020/12/08 07:41:33;;;;;;;46.60;17.20;;;;;;;-6.43;83.75;102446.31;1711263;83;21604;-95
2020/12/08 07:48:25;;;;;;;20.88;9.50;;;;;;;-6.21;84.17;102445.16;1739693;82;20981;-96
2020/12/08 07:55:16;;;;;;;84.90;23.12;;;;;;;-6.22;81.23;102450.21;1726821;82;21039;-95
2020/12/08 08:02:08;;;;;;;24.85;9.05;;;;;;;-6.20;79.23;102456.16;1684921;84;21479;-89
2020/12/08 08:08:28;;;;;;;17.60;9.18;;;;;;;-5.97;78.21;102460.48;1723676;82;21200;-89
2020/12/08 08:14:24;;;;;;;26.70;9.28;;;;;;;-5.78;75.45;102450.33;1722291;82;21381;-89
2020/12/08 08:21:19;;;;;;;27.55;11.08;;;;;;;-5.65;75.05;102455.27;1722549;83;21188;-90
2020/12/08 08:36:24;;;;;;;15.63;7.37;;;;;;;-5.23;72.79;102434.14;1724466;83;21107;-95
2020/12/08 08:42:44;;;;;;;16.97;7.92;;;;;;;-5.09;70.38;102410.25;1722584;83;21196;-93
2020/12/08 08:49:36;;;;;;;22.98;9.55;;;;;;;-4.87;70.69;102389.46;1728384;82;21056;-91
2020/12/08 08:56:27;;;;;;;22.55;8.93;;;;;;;-4.62;69.05;102397.11;1688025;84;21131;-91
2020/12/08 09:03:19;;;;;;;17.45;8.23;;;;;;;-4.59;67.39;102393.33;1715076;82;21204;-91
2020/12/08 09:10:11;;;;;;;14.18;7.87;;;;;;;-4.40;68.92;102392.36;1709210;83;21139;-92
2020/12/08 09:17:03;;;;;;;16.23;8.53;;;;;;;-4.12;67.73;102373.28;1709463;83;21215;-94
2020/12/08 09:23:57;;;;;;;19.90;8.98;;;;;;;-3.90;66.21;102372.30;1754156;80;20985;-92
2020/12/08 09:30:49;;;;;;;18.07;8.40;;;;;;;-3.83;63.46;102369.87;1712206;83;21213;-93
2020/12/08 09:37:45;;;;;;;17.65;7.92;;;;;;;-3.80;63.44;102373.70;1718781;83;21066;-96
2020/12/08 09:44:08;;;;;;;17.25;7.28;;;;;;;-3.58;61.97;102351.48;1690100;83;21180;-94
2020/12/08 09:50:58;;;;;;;14.80;6.97;;;;;;;-3.49;61.79;102346.09;1703912;84;21152;-92
2020/12/08 09:57:49;;;;;;;43.58;18.35;;;;;;;-3.13;61.06;102346.86;1705593;83;21716;-92
2020/12/08 10:04:41;;;;;;;24.55;9.80;;;;;;;-2.95;58.40;102334.70;1702492;83;21212;-92
2020/12/08 10:15:38;;;;;;;25.40;11.40;;;;;;;-2.69;57.30;102345.14;1738945;80;21139;-93
2020/12/08 10:22:29;;;;;;;20.48;11.33;;;;;;;-2.47;55.91;102333.81;1741411;82;21890;-92
2020/12/08 10:29:22;;;;;;;14.73;6.55;;;;;;;-2.38;52.95;102316.86;1722748;83;21604;-92
2020/12/08 10:36:15;;;;;;;13.25;6.95;;;;;;;-2.33;51.92;102323.27;1711989;83;21130;-95
2020/12/08 10:42:57;;;;;;;29.80;7.87;;;;;;;-2.32;50.82;102319.88;1702899;83;21150;-96
2020/12/08 10:49:54;;;;;;;16.65;6.95;;;;;;;-2.20;51.34;102308.88;1722831;83;21507;-94
2020/12/08 10:56:44;;;;;;;28.65;14.38;;;;;;;-2.00;49.52;102311.97;1741310;82;21590;-93
2020/12/08 11:03:36;;;;;;;11.20;6.35;;;;;;;-1.99;50.73;102285.56;1730715;80;21539;-93
2020/12/08 11:10:29;;;;;;;26.65;7.37;;;;;;;-1.89;47.69;102273.71;1730609;80;21192;-93
2020/12/08 11:17:01;;;;;;;12.82;6.45;;;;;;;-1.93;47.98;102271.13;1719551;82;21193;-95
2020/12/08 11:24:15;;;;;;;;;;;;;;;;;;;;;
